sensor_id;sensor_type;location;lat;lon;timestamp;P1;durP1;ratioP1;P2;durP2;ratioP2
44137;SDS011;29800;55.942;37.314;2022-08-30T00:01:09;20.60;;;7.93;;
44137;SDS011;29800;55.942;37.314;2022-08-30T00:03:41;15.93;;;7.40;;
44137;SDS011;29800;55.942;37.314;2022-08-30T00:06:12;16.88;;;7.90;;
44137;SDS011;29800;55.942;37.314;2022-08-30T00:08:40;21.13;;;7.80;;
44137;SDS011;29800;55.942;37.314;2022-08-30T00:11:09;15.48;;;7.57;;
44137;SDS011;29800;55.942;37.314;2022-08-30T00:13:37;14.85;;;7.35;;
44137;SDS011;29800;55.942;37.314;2022-08-30T00:16:05;20.02;;;7.15;;
44137;SDS011;29800;55.942;37.314;2022-08-30T00:18:32;16.50;;;8.00;;
44137;SDS011;29800;55.942;37.314;2022-08-30T00:20:59;11.77;;;6.80;;
44137;SDS011;29800;55.942;37.314;2022-08-30T00:23:26;16.63;;;7.65;;
44137;SDS011;29800;55.942;37.314;2022-08-30T00:25:53;16.90;;;7.40;;
44137;SDS011;29800;55.942;37.314;2022-08-30T00:28:19;18.90;;;7.30;;
44137;SDS011;29800;55.942;37.314;2022-08-30T00:30:45;18.55;;;7.65;;
44137;SDS011;29800;55.942;37.314;2022-08-30T00:33:12;16.35;;;7.47;;
44137;SDS011;29800;55.942;37.314;2022-08-30T00:35:39;13.50;;;7.00;;
44137;SDS011;29800;55.942;37.314;2022-08-30T00:38:06;19.55;;;7.82;;
44137;SDS011;29800;55.942;37.314;2022-08-30T00:40:33;21.80;;;8.30;;
44137;SDS011;29800;55.942;37.314;2022-08-30T00:43:02;24.35;;;8.30;;
44137;SDS011;29800;55.942;37.314;2022-08-30T00:45:33;18.65;;;7.72;;
44137;SDS011;29800;55.942;37.314;2022-08-30T00:48:01;16.67;;;7.78;;
44137;SDS011;29800;55.942;37.314;2022-08-30T00:50:29;19.52;;;7.88;;
44137;SDS011;29800;55.942;37.314;2022-08-30T00:52:59;23.70;;;8.55;;
44137;SDS011;29800;55.942;37.314;2022-08-30T00:55:29;16.23;;;7.55;;
44137;SDS011;29800;55.942;37.314;2022-08-30T00:57:59;16.45;;;7.78;;
44137;SDS011;29800;55.942;37.314;2022-08-30T01:00:29;19.83;;;8.15;;
44137;SDS011;29800;55.942;37.314;2022-08-30T01:02:56;21.40;;;7.97;;
44137;SDS011;29800;55.942;37.314;2022-08-30T01:05:22;18.60;;;7.82;;
44137;SDS011;29800;55.942;37.314;2022-08-30T01:07:48;21.58;;;8.13;;
44137;SDS011;29800;55.942;37.314;2022-08-30T01:10:15;14.05;;;7.55;;
44137;SDS011;29800;55.942;37.314;2022-08-30T01:12:42;18.15;;;7.75;;
44137;SDS011;29800;55.942;37.314;2022-08-30T01:15:09;16.98;;;8.07;;
44137;SDS011;29800;55.942;37.314;2022-08-30T01:17:39;18.60;;;7.00;;
44137;SDS011;29800;55.942;37.314;2022-08-30T01:20:11;20.75;;;8.27;;
44137;SDS011;29800;55.942;37.314;2022-08-30T01:25:18;17.98;;;7.57;;
44137;SDS011;29800;55.942;37.314;2022-08-30T01:28:09;23.17;;;7.88;;
44137;SDS011;29800;55.942;37.314;2022-08-30T01:30:38;20.30;;;7.63;;
44137;SDS011;29800;55.942;37.314;2022-08-30T01:33:07;16.17;;;7.93;;
44137;SDS011;29800;55.942;37.314;2022-08-30T01:35:39;17.13;;;8.00;;
44137;SDS011;29800;55.942;37.314;2022-08-30T01:38:08;15.70;;;7.28;;
44137;SDS011;29800;55.942;37.314;2022-08-30T01:40:34;20.33;;;7.43;;
44137;SDS011;29800;55.942;37.314;2022-08-30T01:43:01;16.00;;;7.80;;
44137;SDS011;29800;55.942;37.314;2022-08-30T01:45:27;17.70;;;7.38;;
44137;SDS011;29800;55.942;37.314;2022-08-30T01:47:53;17.15;;;8.07;;
44137;SDS011;29800;55.942;37.314;2022-08-30T01:50:19;16.50;;;7.60;;
44137;SDS011;29800;55.942;37.314;2022-08-30T01:52:45;18.08;;;7.88;;
44137;SDS011;29800;55.942;37.314;2022-08-30T01:55:12;16.73;;;7.85;;
44137;SDS011;29800;55.942;37.314;2022-08-30T01:57:38;17.70;;;8.07;;
44137;SDS011;29800;55.942;37.314;2022-08-30T02:00:05;17.40;;;8.00;;
44137;SDS011;29800;55.942;37.314;2022-08-30T02:02:37;18.67;;;7.90;;
44137;SDS011;29800;55.942;37.314;2022-08-30T02:05:04;20.20;;;8.05;;
44137;SDS011;29800;55.942;37.314;2022-08-30T02:07:30;16.83;;;8.23;;
44137;SDS011;29800;55.942;37.314;2022-08-30T02:09:57;19.50;;;7.97;;
44137;SDS011;29800;55.942;37.314;2022-08-30T02:12:23;15.63;;;7.53;;
44137;SDS011;29800;55.942;37.314;2022-08-30T02:14:50;18.05;;;8.07;;
44137;SDS011;29800;55.942;37.314;2022-08-30T02:17:16;15.68;;;7.55;;
44137;SDS011;29800;55.942;37.314;2022-08-30T02:19:44;16.27;;;7.80;;
44137;SDS011;29800;55.942;37.314;2022-08-30T02:22:11;19.95;;;8.00;;
44137;SDS011;29800;55.942;37.314;2022-08-30T02:24:37;16.52;;;7.28;;
44137;SDS011;29800;55.942;37.314;2022-08-30T02:27:03;18.27;;;7.95;;
44137;SDS011;29800;55.942;37.314;2022-08-30T02:29:30;17.80;;;7.60;;
44137;SDS011;29800;55.942;37.314;2022-08-30T02:31:56;20.20;;;8.00;;
44137;SDS011;29800;55.942;37.314;2022-08-30T02:34:22;17.55;;;7.20;;
44137;SDS011;29800;55.942;37.314;2022-08-30T02:36:48;15.95;;;8.13;;
44137;SDS011;29800;55.942;37.314;2022-08-30T02:39:14;16.90;;;8.05;;
44137;SDS011;29800;55.942;37.314;2022-08-30T02:41:41;15.07;;;7.28;;
44137;SDS011;29800;55.942;37.314;2022-08-30T02:44:07;18.50;;;8.20;;
44137;SDS011;29800;55.942;37.314;2022-08-30T02:46:35;23.02;;;8.95;;
44137;SDS011;29800;55.942;37.314;2022-08-30T02:49:01;15.10;;;7.35;;
44137;SDS011;29800;55.942;37.314;2022-08-30T02:51:28;16.90;;;7.80;;
44137;SDS011;29800;55.942;37.314;2022-08-30T02:53:55;19.13;;;8.50;;
44137;SDS011;29800;55.942;37.314;2022-08-30T02:56:21;19.50;;;8.57;;
44137;SDS011;29800;55.942;37.314;2022-08-30T02:58:47;21.98;;;8.50;;
44137;SDS011;29800;55.942;37.314;2022-08-30T03:01:14;19.80;;;8.57;;
44137;SDS011;29800;55.942;37.314;2022-08-30T03:03:41;24.90;;;8.40;;
44137;SDS011;29800;55.942;37.314;2022-08-30T03:06:08;19.70;;;8.32;;
44137;SDS011;29800;55.942;37.314;2022-08-30T03:08:37;18.58;;;8.25;;
44137;SDS011;29800;55.942;37.314;2022-08-30T03:11:03;16.92;;;8.48;;
44137;SDS011;29800;55.942;37.314;2022-08-30T03:13:30;19.20;;;10.30;;
44137;SDS011;29800;55.942;37.314;2022-08-30T03:15:56;21.45;;;10.40;;
44137;SDS011;29800;55.942;37.314;2022-08-30T03:18:23;18.92;;;9.30;;
44137;SDS011;29800;55.942;37.314;2022-08-30T03:20:49;25.00;;;9.60;;
44137;SDS011;29800;55.942;37.314;2022-08-30T03:23:16;17.55;;;9.23;;
44137;SDS011;29800;55.942;37.314;2022-08-30T03:25:43;22.77;;;9.65;;
44137;SDS011;29800;55.942;37.314;2022-08-30T03:28:10;20.83;;;9.63;;
44137;SDS011;29800;55.942;37.314;2022-08-30T03:30:36;17.92;;;9.40;;
44137;SDS011;29800;55.942;37.314;2022-08-30T03:33:02;15.85;;;9.75;;
44137;SDS011;29800;55.942;37.314;2022-08-30T03:35:29;20.88;;;9.50;;
44137;SDS011;29800;55.942;37.314;2022-08-30T03:37:56;20.52;;;9.40;;
44137;SDS011;29800;55.942;37.314;2022-08-30T03:40:23;21.00;;;9.25;;
44137;SDS011;29800;55.942;37.314;2022-08-30T03:42:50;19.23;;;9.80;;
44137;SDS011;29800;55.942;37.314;2022-08-30T03:45:17;23.20;;;9.32;;
44137;SDS011;29800;55.942;37.314;2022-08-30T03:47:44;21.20;;;9.48;;
44137;SDS011;29800;55.942;37.314;2022-08-30T03:50:11;28.95;;;10.50;;
44137;SDS011;29800;55.942;37.314;2022-08-30T03:52:38;21.80;;;10.05;;
44137;SDS011;29800;55.942;37.314;2022-08-30T03:55:04;19.75;;;10.02;;
44137;SDS011;29800;55.942;37.314;2022-08-30T03:57:31;20.10;;;10.07;;
44137;SDS011;29800;55.942;37.314;2022-08-30T03:59:58;22.63;;;9.95;;
44137;SDS011;29800;55.942;37.314;2022-08-30T04:02:24;20.70;;;10.73;;
44137;SDS011;29800;55.942;37.314;2022-08-30T04:04:50;20.23;;;9.82;;
44137;SDS011;29800;55.942;37.314;2022-08-30T04:07:17;20.42;;;9.93;;
44137;SDS011;29800;55.942;37.314;2022-08-30T04:09:44;19.35;;;10.88;;
44137;SDS011;29800;55.942;37.314;2022-08-30T04:12:10;24.63;;;10.07;;
44137;SDS011;29800;55.942;37.314;2022-08-30T04:14:36;19.10;;;10.25;;
44137;SDS011;29800;55.942;37.314;2022-08-30T04:17:03;18.75;;;10.07;;
44137;SDS011;29800;55.942;37.314;2022-08-30T04:19:29;18.80;;;11.00;;
44137;SDS011;29800;55.942;37.314;2022-08-30T04:21:55;22.45;;;10.95;;
44137;SDS011;29800;55.942;37.314;2022-08-30T04:24:21;21.33;;;10.98;;
44137;SDS011;29800;55.942;37.314;2022-08-30T04:26:48;20.40;;;10.60;;
44137;SDS011;29800;55.942;37.314;2022-08-30T04:29:14;25.23;;;11.20;;
44137;SDS011;29800;55.942;37.314;2022-08-30T04:31:42;21.30;;;11.43;;
44137;SDS011;29800;55.942;37.314;2022-08-30T04:34:09;23.10;;;11.55;;
44137;SDS011;29800;55.942;37.314;2022-08-30T04:36:37;19.50;;;11.00;;
44137;SDS011;29800;55.942;37.314;2022-08-30T04:39:03;19.88;;;10.57;;
44137;SDS011;29800;55.942;37.314;2022-08-30T04:41:30;22.88;;;11.45;;
44137;SDS011;29800;55.942;37.314;2022-08-30T04:43:56;18.60;;;11.13;;
44137;SDS011;29800;55.942;37.314;2022-08-30T04:46:22;20.63;;;11.40;;
44137;SDS011;29800;55.942;37.314;2022-08-30T04:48:48;23.65;;;10.80;;
44137;SDS011;29800;55.942;37.314;2022-08-30T04:51:15;21.92;;;11.50;;
44137;SDS011;29800;55.942;37.314;2022-08-30T04:53:42;26.02;;;11.23;;
44137;SDS011;29800;55.942;37.314;2022-08-30T04:56:10;22.35;;;12.35;;
44137;SDS011;29800;55.942;37.314;2022-08-30T04:58:41;23.88;;;12.93;;
44137;SDS011;29800;55.942;37.314;2022-08-30T05:01:13;23.25;;;12.27;;
44137;SDS011;29800;55.942;37.314;2022-08-30T05:03:41;24.20;;;13.57;;
44137;SDS011;29800;55.942;37.314;2022-08-30T05:06:09;21.85;;;11.40;;
44137;SDS011;29800;55.942;37.314;2022-08-30T05:08:36;24.42;;;12.18;;
44137;SDS011;29800;55.942;37.314;2022-08-30T05:11:03;19.83;;;12.73;;
44137;SDS011;29800;55.942;37.314;2022-08-30T05:13:31;27.90;;;12.90;;
44137;SDS011;29800;55.942;37.314;2022-08-30T05:15:58;23.88;;;12.82;;
44137;SDS011;29800;55.942;37.314;2022-08-30T05:18:24;15.90;;;9.43;;
44137;SDS011;29800;55.942;37.314;2022-08-30T05:21:04;20.77;;;13.02;;
44137;SDS011;29800;55.942;37.314;2022-08-30T05:23:33;19.75;;;12.63;;
44137;SDS011;29800;55.942;37.314;2022-08-30T05:26:42;20.95;;;13.18;;
44137;SDS011;29800;55.942;37.314;2022-08-30T05:28:56;18.10;;;9.95;;
44137;SDS011;29800;55.942;37.314;2022-08-30T05:31:23;18.65;;;9.75;;
44137;SDS011;29800;55.942;37.314;2022-08-30T05:33:52;18.88;;;11.93;;
44137;SDS011;29800;55.942;37.314;2022-08-30T05:36:20;20.33;;;12.70;;
44137;SDS011;29800;55.942;37.314;2022-08-30T05:38:48;23.35;;;12.60;;
44137;SDS011;29800;55.942;37.314;2022-08-30T05:41:15;25.52;;;13.38;;
44137;SDS011;29800;55.942;37.314;2022-08-30T05:43:43;18.35;;;11.80;;
44137;SDS011;29800;55.942;37.314;2022-08-30T05:46:10;26.85;;;12.75;;
44137;SDS011;29800;55.942;37.314;2022-08-30T05:48:39;21.45;;;13.23;;
44137;SDS011;29800;55.942;37.314;2022-08-30T05:51:07;23.48;;;14.00;;
44137;SDS011;29800;55.942;37.314;2022-08-30T05:53:35;23.67;;;13.73;;
44137;SDS011;29800;55.942;37.314;2022-08-30T05:56:02;24.00;;;13.73;;
44137;SDS011;29800;55.942;37.314;2022-08-30T05:58:30;25.02;;;14.38;;
44137;SDS011;29800;55.942;37.314;2022-08-30T06:00:57;21.90;;;12.82;;
44137;SDS011;29800;55.942;37.314;2022-08-30T06:03:23;28.27;;;12.73;;
44137;SDS011;29800;55.942;37.314;2022-08-30T06:05:50;22.83;;;13.38;;
44137;SDS011;29800;55.942;37.314;2022-08-30T06:08:19;23.83;;;13.25;;
44137;SDS011;29800;55.942;37.314;2022-08-30T06:10:46;22.58;;;12.57;;
44137;SDS011;29800;55.942;37.314;2022-08-30T06:13:12;24.08;;;13.43;;
44137;SDS011;29800;55.942;37.314;2022-08-30T06:15:39;18.85;;;12.20;;
44137;SDS011;29800;55.942;37.314;2022-08-30T06:18:06;23.60;;;13.77;;
44137;SDS011;29800;55.942;37.314;2022-08-30T06:20:32;25.77;;;12.25;;
44137;SDS011;29800;55.942;37.314;2022-08-30T06:22:58;24.17;;;12.57;;
44137;SDS011;29800;55.942;37.314;2022-08-30T06:25:24;22.27;;;12.55;;
44137;SDS011;29800;55.942;37.314;2022-08-30T06:27:50;17.00;;;12.23;;
44137;SDS011;29800;55.942;37.314;2022-08-30T06:30:16;19.92;;;12.20;;
44137;SDS011;29800;55.942;37.314;2022-08-30T06:32:42;25.58;;;13.07;;
44137;SDS011;29800;55.942;37.314;2022-08-30T06:35:09;20.83;;;12.45;;
44137;SDS011;29800;55.942;37.314;2022-08-30T06:37:35;23.73;;;12.90;;
44137;SDS011;29800;55.942;37.314;2022-08-30T06:40:01;18.33;;;11.68;;
44137;SDS011;29800;55.942;37.314;2022-08-30T06:42:30;19.17;;;11.88;;
44137;SDS011;29800;55.942;37.314;2022-08-30T06:44:58;20.05;;;11.25;;
44137;SDS011;29800;55.942;37.314;2022-08-30T06:47:26;21.20;;;12.20;;
44137;SDS011;29800;55.942;37.314;2022-08-30T06:49:53;24.20;;;12.38;;
44137;SDS011;29800;55.942;37.314;2022-08-30T06:52:20;19.50;;;12.57;;
44137;SDS011;29800;55.942;37.314;2022-08-30T06:54:46;17.83;;;11.00;;
44137;SDS011;29800;55.942;37.314;2022-08-30T06:57:12;20.90;;;12.10;;
44137;SDS011;29800;55.942;37.314;2022-08-30T06:59:38;23.40;;;11.95;;
44137;SDS011;29800;55.942;37.314;2022-08-30T07:02:04;25.27;;;13.23;;
44137;SDS011;29800;55.942;37.314;2022-08-30T07:04:32;22.40;;;12.60;;
44137;SDS011;29800;55.942;37.314;2022-08-30T07:06:59;19.77;;;12.50;;
44137;SDS011;29800;55.942;37.314;2022-08-30T07:09:25;20.98;;;12.23;;
44137;SDS011;29800;55.942;37.314;2022-08-30T07:11:51;20.70;;;11.73;;
44137;SDS011;29800;55.942;37.314;2022-08-30T07:14:18;19.30;;;11.45;;
44137;SDS011;29800;55.942;37.314;2022-08-30T07:16:45;20.25;;;12.10;;
44137;SDS011;29800;55.942;37.314;2022-08-30T07:19:12;18.27;;;11.18;;
44137;SDS011;29800;55.942;37.314;2022-08-30T07:21:39;16.52;;;10.90;;
44137;SDS011;29800;55.942;37.314;2022-08-30T07:24:10;16.13;;;11.40;;
44137;SDS011;29800;55.942;37.314;2022-08-30T07:26:39;20.23;;;11.85;;
44137;SDS011;29800;55.942;37.314;2022-08-30T07:29:07;18.80;;;11.60;;
44137;SDS011;29800;55.942;37.314;2022-08-30T07:31:34;20.48;;;10.93;;
44137;SDS011;29800;55.942;37.314;2022-08-30T07:34:01;19.95;;;12.10;;
44137;SDS011;29800;55.942;37.314;2022-08-30T07:36:28;23.17;;;13.25;;
44137;SDS011;29800;55.942;37.314;2022-08-30T07:38:55;20.13;;;11.48;;
44137;SDS011;29800;55.942;37.314;2022-08-30T07:43:51;22.52;;;11.48;;
44137;SDS011;29800;55.942;37.314;2022-08-30T07:46:17;21.63;;;12.20;;
44137;SDS011;29800;55.942;37.314;2022-08-30T07:48:44;17.60;;;12.02;;
44137;SDS011;29800;55.942;37.314;2022-08-30T07:51:12;17.45;;;11.73;;
44137;SDS011;29800;55.942;37.314;2022-08-30T07:53:41;23.90;;;12.25;;
44137;SDS011;29800;55.942;37.314;2022-08-30T07:56:07;21.80;;;12.20;;
44137;SDS011;29800;55.942;37.314;2022-08-30T07:58:33;26.08;;;11.60;;
44137;SDS011;29800;55.942;37.314;2022-08-30T08:01:02;16.48;;;11.25;;
44137;SDS011;29800;55.942;37.314;2022-08-30T08:03:32;18.08;;;11.95;;
44137;SDS011;29800;55.942;37.314;2022-08-30T08:06:00;18.73;;;10.98;;
44137;SDS011;29800;55.942;37.314;2022-08-30T08:08:28;15.48;;;11.57;;
44137;SDS011;29800;55.942;37.314;2022-08-30T08:10:55;20.25;;;12.07;;
44137;SDS011;29800;55.942;37.314;2022-08-30T08:13:22;16.20;;;11.43;;
44137;SDS011;29800;55.942;37.314;2022-08-30T08:15:48;17.73;;;11.75;;
44137;SDS011;29800;55.942;37.314;2022-08-30T08:18:14;23.08;;;11.85;;
44137;SDS011;29800;55.942;37.314;2022-08-30T08:20:41;15.60;;;10.85;;
44137;SDS011;29800;55.942;37.314;2022-08-30T08:23:07;20.50;;;11.30;;
44137;SDS011;29800;55.942;37.314;2022-08-30T08:25:36;17.13;;;10.70;;
44137;SDS011;29800;55.942;37.314;2022-08-30T08:28:05;15.00;;;10.98;;
44137;SDS011;29800;55.942;37.314;2022-08-30T08:30:32;18.42;;;10.98;;
44137;SDS011;29800;55.942;37.314;2022-08-30T08:33:00;19.85;;;10.85;;
44137;SDS011;29800;55.942;37.314;2022-08-30T08:35:28;21.10;;;11.65;;
44137;SDS011;29800;55.942;37.314;2022-08-30T08:37:54;18.27;;;11.10;;
44137;SDS011;29800;55.942;37.314;2022-08-30T08:40:20;21.15;;;11.82;;
44137;SDS011;29800;55.942;37.314;2022-08-30T08:42:53;21.88;;;11.45;;
44137;SDS011;29800;55.942;37.314;2022-08-30T08:48:27;19.48;;;10.93;;
44137;SDS011;29800;55.942;37.314;2022-08-30T08:51:03;20.00;;;11.65;;
44137;SDS011;29800;55.942;37.314;2022-08-30T08:53:56;16.65;;;10.70;;
44137;SDS011;29800;55.942;37.314;2022-08-30T08:56:31;21.10;;;11.32;;
44137;SDS011;29800;55.942;37.314;2022-08-30T08:58:58;17.45;;;10.18;;
44137;SDS011;29800;55.942;37.314;2022-08-30T09:01:26;16.90;;;10.13;;
44137;SDS011;29800;55.942;37.314;2022-08-30T09:03:55;15.32;;;10.48;;
44137;SDS011;29800;55.942;37.314;2022-08-30T09:09:17;19.67;;;10.57;;
44137;SDS011;29800;55.942;37.314;2022-08-30T09:12:08;14.43;;;10.07;;
44137;SDS011;29800;55.942;37.314;2022-08-30T09:14:38;16.20;;;10.25;;
44137;SDS011;29800;55.942;37.314;2022-08-30T09:17:09;15.32;;;9.70;;
44137;SDS011;29800;55.942;37.314;2022-08-30T09:19:40;19.60;;;10.63;;
44137;SDS011;29800;55.942;37.314;2022-08-30T09:22:15;17.65;;;9.75;;
44137;SDS011;29800;55.942;37.314;2022-08-30T09:24:49;16.55;;;9.98;;
44137;SDS011;29800;55.942;37.314;2022-08-30T09:27:28;14.85;;;9.70;;
44137;SDS011;29800;55.942;37.314;2022-08-30T09:29:59;14.73;;;10.18;;
44137;SDS011;29800;55.942;37.314;2022-08-30T09:32:59;17.23;;;10.15;;
44137;SDS011;29800;55.942;37.314;2022-08-30T09:35:32;13.43;;;8.98;;
44137;SDS011;29800;55.942;37.314;2022-08-30T09:38:06;15.38;;;9.02;;
44137;SDS011;29800;55.942;37.314;2022-08-30T09:40:38;16.73;;;9.60;;
44137;SDS011;29800;55.942;37.314;2022-08-30T09:43:09;19.52;;;9.20;;
44137;SDS011;29800;55.942;37.314;2022-08-30T09:45:45;14.30;;;8.90;;
44137;SDS011;29800;55.942;37.314;2022-08-30T09:56:19;13.55;;;9.15;;
44137;SDS011;29800;55.942;37.314;2022-08-30T09:59:08;14.18;;;8.80;;
44137;SDS011;29800;55.942;37.314;2022-08-30T10:01:47;16.58;;;8.27;;
44137;SDS011;29800;55.942;37.314;2022-08-30T10:04:24;14.07;;;8.70;;
44137;SDS011;29800;55.942;37.314;2022-08-30T10:07:06;16.73;;;8.32;;
44137;SDS011;29800;55.942;37.314;2022-08-30T10:12:23;18.70;;;9.27;;
44137;SDS011;29800;55.942;37.314;2022-08-30T10:17:40;15.20;;;8.48;;
44137;SDS011;29800;55.942;37.314;2022-08-30T10:20:27;15.00;;;8.73;;
44137;SDS011;29800;55.942;37.314;2022-08-30T10:29:00;14.20;;;8.75;;
44137;SDS011;29800;55.942;37.314;2022-08-30T10:34:25;12.02;;;7.88;;
44137;SDS011;29800;55.942;37.314;2022-08-30T10:37:06;15.75;;;8.15;;
44137;SDS011;29800;55.942;37.314;2022-08-30T10:39:38;11.85;;;8.00;;
44137;SDS011;29800;55.942;37.314;2022-08-30T10:42:10;13.57;;;7.75;;
44137;SDS011;29800;55.942;37.314;2022-08-30T10:44:43;15.30;;;7.35;;
44137;SDS011;29800;55.942;37.314;2022-08-30T10:47:24;15.05;;;7.78;;
44137;SDS011;29800;55.942;37.314;2022-08-30T10:49:51;13.65;;;7.35;;
44137;SDS011;29800;55.942;37.314;2022-08-30T10:55:25;14.23;;;7.57;;
44137;SDS011;29800;55.942;37.314;2022-08-30T10:58:02;14.98;;;8.73;;
44137;SDS011;29800;55.942;37.314;2022-08-30T11:00:55;10.63;;;7.60;;
44137;SDS011;29800;55.942;37.314;2022-08-30T11:07:11;15.73;;;8.18;;
44137;SDS011;29800;55.942;37.314;2022-08-30T11:09:24;13.70;;;8.75;;
44137;SDS011;29800;55.942;37.314;2022-08-30T11:14:52;14.32;;;9.00;;
44137;SDS011;29800;55.942;37.314;2022-08-30T11:17:34;16.85;;;8.85;;
44137;SDS011;29800;55.942;37.314;2022-08-30T11:20:05;13.68;;;9.07;;
44137;SDS011;29800;55.942;37.314;2022-08-30T11:23:31;14.70;;;9.40;;
44137;SDS011;29800;55.942;37.314;2022-08-30T11:26:15;13.95;;;9.30;;
44137;SDS011;29800;55.942;37.314;2022-08-30T11:29:01;13.82;;;9.13;;
44137;SDS011;29800;55.942;37.314;2022-08-30T11:31:37;17.77;;;9.60;;
44137;SDS011;29800;55.942;37.314;2022-08-30T11:34:05;12.65;;;8.27;;
44137;SDS011;29800;55.942;37.314;2022-08-30T11:39:07;15.07;;;8.82;;
44137;SDS011;29800;55.942;37.314;2022-08-30T11:41:36;18.77;;;9.10;;
44137;SDS011;29800;55.942;37.314;2022-08-30T11:44:25;15.40;;;9.10;;
44137;SDS011;29800;55.942;37.314;2022-08-30T11:46:55;17.80;;;9.55;;
44137;SDS011;29800;55.942;37.314;2022-08-30T11:49:47;17.05;;;9.90;;
44137;SDS011;29800;55.942;37.314;2022-08-30T12:08:38;17.25;;;10.10;;
44137;SDS011;29800;55.942;37.314;2022-08-30T12:11:03;12.85;;;8.25;;
44137;SDS011;29800;55.942;37.314;2022-08-30T12:13:53;11.38;;;6.97;;
44137;SDS011;29800;55.942;37.314;2022-08-30T12:16:21;12.25;;;7.07;;
44137;SDS011;29800;55.942;37.314;2022-08-30T12:19:17;14.82;;;7.18;;
44137;SDS011;29800;55.942;37.314;2022-08-30T12:21:53;11.27;;;7.70;;
44137;SDS011;29800;55.942;37.314;2022-08-30T12:26:53;11.75;;;7.30;;
44137;SDS011;29800;55.942;37.314;2022-08-30T12:34:22;25.10;;;8.02;;
44137;SDS011;29800;55.942;37.314;2022-08-30T12:36:58;13.98;;;7.63;;
44137;SDS011;29800;55.942;37.314;2022-08-30T12:39:35;12.60;;;7.47;;
44137;SDS011;29800;55.942;37.314;2022-08-30T12:44:48;15.57;;;7.55;;
44137;SDS011;29800;55.942;37.314;2022-08-30T12:47:17;15.90;;;7.07;;
44137;SDS011;29800;55.942;37.314;2022-08-30T12:49:46;15.18;;;7.88;;
44137;SDS011;29800;55.942;37.314;2022-08-30T12:52:22;13.95;;;7.35;;
44137;SDS011;29800;55.942;37.314;2022-08-30T12:54:49;13.65;;;8.50;;
44137;SDS011;29800;55.942;37.314;2022-08-30T12:57:36;13.82;;;7.93;;
44137;SDS011;29800;55.942;37.314;2022-08-30T13:00:08;12.95;;;7.32;;
44137;SDS011;29800;55.942;37.314;2022-08-30T13:13:53;16.52;;;7.88;;
44137;SDS011;29800;55.942;37.314;2022-08-30T13:16:25;12.45;;;7.97;;
44137;SDS011;29800;55.942;37.314;2022-08-30T13:21:51;14.20;;;7.78;;
44137;SDS011;29800;55.942;37.314;2022-08-30T13:24:19;14.57;;;7.93;;
44137;SDS011;29800;55.942;37.314;2022-08-30T13:26:45;16.35;;;7.53;;
44137;SDS011;29800;55.942;37.314;2022-08-30T13:29:23;13.88;;;7.03;;
44137;SDS011;29800;55.942;37.314;2022-08-30T13:31:51;15.95;;;7.38;;
44137;SDS011;29800;55.942;37.314;2022-08-30T13:34:18;13.32;;;8.02;;
44137;SDS011;29800;55.942;37.314;2022-08-30T13:36:48;17.25;;;8.02;;
44137;SDS011;29800;55.942;37.314;2022-08-30T13:39:16;17.70;;;7.72;;
44137;SDS011;29800;55.942;37.314;2022-08-30T13:41:42;15.05;;;7.78;;
44137;SDS011;29800;55.942;37.314;2022-08-30T13:44:09;15.25;;;8.50;;
44137;SDS011;29800;55.942;37.314;2022-08-30T13:46:35;21.17;;;8.73;;
44137;SDS011;29800;55.942;37.314;2022-08-30T13:49:05;15.93;;;8.55;;
44137;SDS011;29800;55.942;37.314;2022-08-30T13:51:33;15.43;;;8.77;;
44137;SDS011;29800;55.942;37.314;2022-08-30T13:53:59;18.55;;;8.88;;
44137;SDS011;29800;55.942;37.314;2022-08-30T13:56:26;19.52;;;9.02;;
44137;SDS011;29800;55.942;37.314;2022-08-30T13:58:57;14.00;;;8.40;;
44137;SDS011;29800;55.942;37.314;2022-08-30T14:01:27;16.48;;;7.80;;
44137;SDS011;29800;55.942;37.314;2022-08-30T14:03:54;10.68;;;7.22;;
44137;SDS011;29800;55.942;37.314;2022-08-30T14:06:20;13.13;;;7.25;;
44137;SDS011;29800;55.942;37.314;2022-08-30T14:08:46;14.38;;;7.38;;
44137;SDS011;29800;55.942;37.314;2022-08-30T14:11:13;15.68;;;7.57;;
44137;SDS011;29800;55.942;37.314;2022-08-30T14:13:42;13.60;;;7.20;;
44137;SDS011;29800;55.942;37.314;2022-08-30T14:16:08;10.85;;;7.18;;
44137;SDS011;29800;55.942;37.314;2022-08-30T14:18:34;15.02;;;7.95;;
44137;SDS011;29800;55.942;37.314;2022-08-30T14:21:01;15.63;;;7.40;;
44137;SDS011;29800;55.942;37.314;2022-08-30T14:23:27;13.25;;;7.65;;
44137;SDS011;29800;55.942;37.314;2022-08-30T14:25:55;15.50;;;8.27;;
44137;SDS011;29800;55.942;37.314;2022-08-30T14:28:25;13.80;;;7.50;;
44137;SDS011;29800;55.942;37.314;2022-08-30T14:30:54;15.65;;;8.32;;
44137;SDS011;29800;55.942;37.314;2022-08-30T14:33:20;17.77;;;8.35;;
44137;SDS011;29800;55.942;37.314;2022-08-30T14:35:46;15.90;;;8.43;;
44137;SDS011;29800;55.942;37.314;2022-08-30T14:38:12;15.95;;;9.23;;
44137;SDS011;29800;55.942;37.314;2022-08-30T14:40:38;14.85;;;8.20;;
44137;SDS011;29800;55.942;37.314;2022-08-30T14:43:05;14.13;;;8.40;;
44137;SDS011;29800;55.942;37.314;2022-08-30T14:45:31;13.75;;;7.65;;
44137;SDS011;29800;55.942;37.314;2022-08-30T14:47:57;19.88;;;8.05;;
44137;SDS011;29800;55.942;37.314;2022-08-30T14:50:27;13.00;;;8.43;;
44137;SDS011;29800;55.942;37.314;2022-08-30T14:52:53;11.45;;;7.82;;
44137;SDS011;29800;55.942;37.314;2022-08-30T14:55:19;13.00;;;8.38;;
44137;SDS011;29800;55.942;37.314;2022-08-30T14:57:45;11.60;;;7.85;;
44137;SDS011;29800;55.942;37.314;2022-08-30T15:00:13;14.82;;;8.25;;
44137;SDS011;29800;55.942;37.314;2022-08-30T15:02:40;17.83;;;9.18;;
44137;SDS011;29800;55.942;37.314;2022-08-30T15:05:06;17.70;;;8.68;;
44137;SDS011;29800;55.942;37.314;2022-08-30T15:07:33;13.82;;;8.88;;
44137;SDS011;29800;55.942;37.314;2022-08-30T15:09:59;15.98;;;9.15;;
44137;SDS011;29800;55.942;37.314;2022-08-30T15:12:25;19.88;;;9.13;;
44137;SDS011;29800;55.942;37.314;2022-08-30T15:14:51;15.50;;;9.00;;
44137;SDS011;29800;55.942;37.314;2022-08-30T15:17:17;15.80;;;9.05;;
44137;SDS011;29800;55.942;37.314;2022-08-30T15:19:44;16.15;;;9.00;;
44137;SDS011;29800;55.942;37.314;2022-08-30T15:22:10;15.65;;;8.98;;
44137;SDS011;29800;55.942;37.314;2022-08-30T15:24:36;17.63;;;9.43;;
44137;SDS011;29800;55.942;37.314;2022-08-30T15:27:02;15.40;;;8.90;;
44137;SDS011;29800;55.942;37.314;2022-08-30T15:29:29;22.17;;;9.50;;
44137;SDS011;29800;55.942;37.314;2022-08-30T15:31:55;22.17;;;9.07;;
44137;SDS011;29800;55.942;37.314;2022-08-30T15:34:22;19.60;;;9.60;;
44137;SDS011;29800;55.942;37.314;2022-08-30T15:36:49;22.15;;;9.60;;
44137;SDS011;29800;55.942;37.314;2022-08-30T15:39:16;19.48;;;10.55;;
44137;SDS011;29800;55.942;37.314;2022-08-30T15:41:43;19.60;;;9.05;;
44137;SDS011;29800;55.942;37.314;2022-08-30T15:44:10;21.60;;;9.10;;
44137;SDS011;29800;55.942;37.314;2022-08-30T15:46:38;21.52;;;10.05;;
44137;SDS011;29800;55.942;37.314;2022-08-30T15:49:07;24.90;;;9.88;;
44137;SDS011;29800;55.942;37.314;2022-08-30T15:51:36;21.02;;;8.95;;
44137;SDS011;29800;55.942;37.314;2022-08-30T15:54:03;19.35;;;8.68;;